nws-alerts: Checking more than four warning/county codes can delay the loading of your pages. You should use a cron job to get the data.
EllijayWeather Station Historical Data
Daily Summary for August 20, 2019 Units:  Metric    English   Both
Daily Weekly Monthly Yearly Custom
  High: Low: Average:
Temperature: 30.9 °C 17.5 °C 23.9 °C
Dew Point: 23.7 °C 17 °C 20.2 °C
Humidity: 98% 56% 82%
Wind Speed: 6.4km/h 0km/h 0km/h
Wind Gust: 9.7km/h - -
Wind- - WNW
Pressure: 1020.9 hPa 1016.8 hPa -
Precipitation: 0 mm    
Historical Graphs
 
 
Tabular Data for August 20, 2019
Time Temperature Dew Point Pressure Wind Wind Speed Wind Gust Humidity Rainfall Rate (Hourly) solar
00:00 19.8 °C 19 °C 1019.5 hPa Calm     95% 0 mm meteobridge W/m2
00:05 19.8 °C 19 °C 1019.5 hPa Calm     95% 0 mm meteobridge W/m2
00:10 19.8 °C 19 °C 1019.5 hPa Calm     95% 0 mm meteobridge W/m2
00:15 19.7 °C 18.9 °C 1019.5 hPa Calm     95% 0 mm meteobridge W/m2
00:20 19.7 °C 18.9 °C 1019.5 hPa Calm     95% 0 mm meteobridge W/m2
00:25 19.7 °C 18.9 °C 1019.5 hPa Calm     95% 0 mm meteobridge W/m2
00:30 19.6 °C 18.8 °C 1019.5 hPa Calm     95% 0 mm meteobridge W/m2
00:35 19.5 °C 18.7 °C 1019.5 hPa Calm     95% 0 mm meteobridge W/m2
00:40 19.5 °C 18.8 °C 1019.5 hPa Calm     96% 0 mm meteobridge W/m2
00:45 19.4 °C 18.7 °C 1019.5 hPa Calm     96% 0 mm meteobridge W/m2
00:50 19.4 °C 18.7 °C 1019.5 hPa Calm     96% 0 mm meteobridge W/m2
00:55 19.4 °C 18.7 °C 1019.5 hPa Calm     96% 0 mm meteobridge W/m2
01:00 19.3 °C 18.6 °C 1019.5 hPa Calm     96% 0 mm meteobridge W/m2
01:05 19.3 °C 18.6 °C 1019.5 hPa Calm     96% 0 mm meteobridge W/m2
01:10 19.3 °C 18.6 °C 1019.2 hPa Calm     96% 0 mm meteobridge W/m2
01:15 19.2 °C 18.5 °C 1019.5 hPa Calm     96% 0 mm meteobridge W/m2
01:20 19.2 °C 18.5 °C 1019.5 hPa Calm     96% 0 mm meteobridge W/m2
01:25 19.2 °C 18.5 °C 1019.2 hPa Calm     96% 0 mm meteobridge W/m2
01:30 19.2 °C 18.5 °C 1019.2 hPa Calm     96% 0 mm meteobridge W/m2
01:35 19.2 °C 18.5 °C 1019.2 hPa Calm     96% 0 mm meteobridge W/m2
01:40 19.1 °C 18.4 °C 1019.2 hPa Calm     96% 0 mm meteobridge W/m2
01:45 19.1 °C 18.4 °C 1019.2 hPa Calm     96% 0 mm meteobridge W/m2
01:50 19.1 °C 18.4 °C 1019.2 hPa Calm     96% 0 mm meteobridge W/m2
01:55 19 °C 18.5 °C 1019.2 hPa Calm     97% 0 mm meteobridge W/m2
02:00 19 °C 18.5 °C 1019.2 hPa Calm     97% 0 mm meteobridge W/m2
02:05 19.1 °C 18.6 °C 1019.2 hPa Calm     97% 0 mm meteobridge W/m2
02:10 19.1 °C 18.6 °C 1019.2 hPa Calm     97% 0 mm meteobridge W/m2
02:15 19.1 °C 18.6 °C 1019.2 hPa Calm     97% 0 mm meteobridge W/m2
02:20 19.1 °C 18.6 °C 1019.2 hPa Calm     97% 0 mm meteobridge W/m2
02:25 19.1 °C 18.6 °C 1018.8 hPa Calm     97% 0 mm meteobridge W/m2
02:30 19.1 °C 18.6 °C 1018.8 hPa Calm     97% 0 mm meteobridge W/m2
02:35 19.1 °C 18.6 °C 1018.8 hPa Calm     97% 0 mm meteobridge W/m2
02:40 19.1 °C 18.6 °C 1019.2 hPa Calm     97% 0 mm meteobridge W/m2
02:45 19.1 °C 18.6 °C 1019.2 hPa Calm     97% 0 mm meteobridge W/m2
02:50 19.1 °C 18.6 °C 1018.8 hPa Calm     97% 0 mm meteobridge W/m2
02:55 19.2 °C 18.7 °C 1018.8 hPa Calm     97% 0 mm meteobridge W/m2
03:00 19.2 °C 18.7 °C 1018.8 hPa Calm     97% 0 mm meteobridge W/m2
03:05 19.2 °C 18.7 °C 1018.8 hPa Calm     97% 0 mm meteobridge W/m2
03:10 19.2 °C 18.7 °C 1019.2 hPa Calm     97% 0 mm meteobridge W/m2
03:15 19.2 °C 18.7 °C 1019.2 hPa Calm     97% 0 mm meteobridge W/m2
03:20 19.2 °C 18.5 °C 1019.2 hPa Calm     96% 0 mm meteobridge W/m2
03:25 19.1 °C 18.6 °C 1019.2 hPa Calm     97% 0 mm meteobridge W/m2
03:30 19.1 °C 18.6 °C 1018.8 hPa Calm     97% 0 mm meteobridge W/m2
03:35 19.1 °C 18.6 °C 1018.8 hPa Calm     97% 0 mm meteobridge W/m2
03:40 19.1 °C 18.6 °C 1019.2 hPa Calm     97% 0 mm meteobridge W/m2
03:45 19 °C 18.5 °C 1018.8 hPa Calm     97% 0 mm meteobridge W/m2
03:50 18.9 °C 18.2 °C 1018.8 hPa Calm     96% 0 mm meteobridge W/m2
03:55 18.9 °C 18.2 °C 1018.8 hPa Calm     96% 0 mm meteobridge W/m2
04:00 18.9 °C 18.2 °C 1018.8 hPa Calm     96% 0 mm meteobridge W/m2
04:05 18.8 °C 18.1 °C 1018.8 hPa Calm     96% 0 mm meteobridge W/m2
04:10 18.8 °C 18.3 °C 1018.8 hPa Calm     97% 0 mm meteobridge W/m2
04:15 18.8 °C 18.3 °C 1019.2 hPa Calm     97% 0 mm meteobridge W/m2
04:20 18.8 °C 18.3 °C 1018.8 hPa Calm     97% 0 mm meteobridge W/m2
04:25 18.7 °C 18.2 °C 1019.2 hPa Calm     97% 0 mm meteobridge W/m2
04:30 18.7 °C 18.2 °C 1019.2 hPa Calm     97% 0 mm meteobridge W/m2
04:35 18.7 °C 18.2 °C 1019.2 hPa Calm     97% 0 mm meteobridge W/m2
04:40 18.6 °C 17.9 °C 1019.5 hPa Calm     96% 0 mm meteobridge W/m2
04:45 18.6 °C 17.9 °C 1019.5 hPa Calm     96% 0 mm meteobridge W/m2
04:50 18.4 °C 17.8 °C 1019.5 hPa Calm     96% 0 mm meteobridge W/m2
04:55 18.4 °C 17.9 °C 1019.5 hPa Calm     97% 0 mm meteobridge W/m2
05:00 18.4 °C 17.8 °C 1019.5 hPa Calm     96% 0 mm meteobridge W/m2
05:05 18.3 °C 17.8 °C 1019.5 hPa Calm     97% 0 mm meteobridge W/m2
05:10 18.3 °C 17.8 °C 1019.2 hPa Calm     97% 0 mm meteobridge W/m2
05:15 18.3 °C 17.8 °C 1019.2 hPa Calm     97% 0 mm meteobridge W/m2
05:20 18.2 °C 17.7 °C 1019.2 hPa Calm     97% 0 mm meteobridge W/m2
05:25 18.2 °C 17.7 °C 1019.2 hPa Calm     97% 0 mm meteobridge W/m2
05:30 18.2 °C 17.7 °C 1019.5 hPa Calm     97% 0 mm meteobridge W/m2
05:35 18.1 °C 17.6 °C 1019.5 hPa Calm     97% 0 mm meteobridge W/m2
05:40 18.2 °C 17.7 °C 1019.5 hPa Calm     97% 0 mm meteobridge W/m2
05:45 18.2 °C 17.7 °C 1019.5 hPa Calm     97% 0 mm meteobridge W/m2
05:50 18.1 °C 17.6 °C 1019.5 hPa Calm     97% 0 mm meteobridge W/m2
05:55 18.1 °C 17.6 °C 1019.5 hPa Calm     97% 0 mm meteobridge W/m2
06:00 18 °C 17.5 °C 1019.5 hPa Calm     97% 0 mm meteobridge W/m2
06:05 18 °C 17.5 °C 1019.5 hPa Calm     97% 0 mm meteobridge W/m2
06:10 17.9 °C 17.4 °C 1019.5 hPa Calm     97% 0 mm meteobridge W/m2
06:15 17.9 °C 17.4 °C 1019.5 hPa Calm     97% 0 mm meteobridge W/m2
06:20 17.8 °C 17.3 °C 1019.9 hPa Calm     97% 0 mm meteobridge W/m2
06:25 17.8 °C 17.3 °C 1019.9 hPa Calm     97% 0 mm meteobridge W/m2
06:30 17.8 °C 17.3 °C 1019.9 hPa Calm     97% 0 mm meteobridge W/m2
06:35 17.8 °C 17.3 °C 1020.2 hPa Calm     97% 0 mm meteobridge W/m2
06:40 17.8 °C 17.3 °C 1020.2 hPa Calm     97% 0 mm meteobridge W/m2
06:45 17.7 °C 17.2 °C 1020.2 hPa Calm     97% 0 mm meteobridge W/m2
06:50 17.7 °C 17.2 °C 1020.2 hPa Calm     97% 0 mm meteobridge W/m2
06:55 17.7 °C 17.2 °C 1020.2 hPa Calm     97% 0 mm meteobridge W/m2
07:00 17.7 °C 17.2 °C 1020.5 hPa Calm     97% 0 mm meteobridge W/m2
07:05 17.6 °C 17.1 °C 1020.5 hPa Calm     97% 0 mm meteobridge W/m2
07:10 17.6 °C 17.1 °C 1020.5 hPa Calm     97% 0 mm meteobridge W/m2
07:15 17.6 °C 17.1 °C 1020.5 hPa Calm     97% 0 mm meteobridge W/m2
07:20 17.6 °C 17.1 °C 1020.5 hPa Calm     97% 0 mm meteobridge W/m2
07:25 17.6 °C 17.1 °C 1020.5 hPa Calm     97% 0 mm meteobridge W/m2
07:30 17.5 °C 17 °C 1020.5 hPa Calm     97% 0 mm meteobridge W/m2
07:35 17.6 °C 17.1 °C 1020.5 hPa Calm     97% 0 mm meteobridge W/m2
07:40 17.6 °C 17.1 °C 1020.5 hPa Calm     97% 0 mm meteobridge W/m2
07:45 17.6 °C 17.1 °C 1020.5 hPa Calm     97% 0 mm meteobridge W/m2
07:50 17.6 °C 17.3 °C 1020.5 hPa Calm     98% 0 mm meteobridge W/m2
07:55 17.7 °C 17.4 °C 1020.5 hPa Calm     98% 0 mm meteobridge W/m2
08:00 17.7 °C 17.4 °C 1020.5 hPa Calm     98% 0 mm meteobridge W/m2
08:05 17.8 °C 17.5 °C 1020.5 hPa Calm     98% 0 mm meteobridge W/m2
08:10 17.8 °C 17.5 °C 1020.5 hPa Calm     98% 0 mm meteobridge W/m2
08:15 17.9 °C 17.6 °C 1020.5 hPa Calm     98% 0 mm meteobridge W/m2
08:20 17.9 °C 17.6 °C 1020.5 hPa Calm     98% 0 mm meteobridge W/m2
08:25 18.1 °C 17.8 °C 1020.5 hPa Calm     98% 0 mm meteobridge W/m2
08:30 18.2 °C 17.9 °C 1020.5 hPa Calm     98% 0 mm meteobridge W/m2
08:35 18.3 °C 18 °C 1020.5 hPa Calm     98% 0 mm meteobridge W/m2
08:40 18.4 °C 18.1 °C 1020.5 hPa Calm     98% 0 mm meteobridge W/m2
08:45 18.6 °C 18.3 °C 1020.5 hPa Calm     98% 0 mm meteobridge W/m2
08:50 18.7 °C 18.4 °C 1020.5 hPa Calm     98% 0 mm meteobridge W/m2
08:55 18.8 °C 18.5 °C 1020.5 hPa Calm     98% 0 mm meteobridge W/m2
09:00 19.1 °C 18.8 °C 1020.5 hPa Calm     98% 0 mm meteobridge W/m2
09:05 19.3 °C 19 °C 1020.5 hPa Calm     98% 0 mm meteobridge W/m2
09:10 19.5 °C 19.2 °C 1020.5 hPa Calm     98% 0 mm meteobridge W/m2
09:15 19.7 °C 19.2 °C 1020.5 hPa Calm     97% 0 mm meteobridge W/m2
09:20 19.9 °C 19.6 °C 1020.2 hPa Calm     98% 0 mm meteobridge W/m2
09:25 20.1 °C 19.6 °C 1020.5 hPa Calm     97% 0 mm meteobridge W/m2
09:30 20.3 °C 19.6 °C 1020.5 hPa Calm     96% 0 mm meteobridge W/m2
09:35 20.6 °C 19.8 °C 1020.2 hPa Calm     95% 0 mm meteobridge W/m2
09:40 20.9 °C 19.9 °C 1020.2 hPa Calm     94% 0 mm meteobridge W/m2
09:45 21.2 °C 20 °C 1020.2 hPa Calm     93% 0 mm meteobridge W/m2
09:50 21.6 °C 20.2 °C 1019.9 hPa Calm     92% 0 mm meteobridge W/m2
09:55 21.8 °C 20.6 °C 1019.9 hPa Calm     93% 0 mm meteobridge W/m2
10:00 21.9 °C 20.5 °C 1019.9 hPa Calm     92% 0 mm meteobridge W/m2
10:05 22.3 °C 21.3 °C 1019.9 hPa Calm     94% 0 mm meteobridge W/m2
10:10 22.6 °C 20.9 °C 1019.9 hPa Calm     90% 0 mm meteobridge W/m2
10:15 22.8 °C 20.7 °C 1019.9 hPa Calm     88% 0 mm meteobridge W/m2
10:20 23.2 °C 20.9 °C 1019.9 hPa Calm     87% 0 mm meteobridge W/m2
10:25 23.4 °C 21.1 °C 1019.9 hPa Calm     87% 0 mm meteobridge W/m2
10:30 23.7 °C 21.2 °C 1019.9 hPa Calm     86% 0 mm meteobridge W/m2
10:35 23.9 °C 21.6 °C 1019.9 hPa Calm     87% 0 mm meteobridge W/m2
10:40 24 °C 21.5 °C 1019.9 hPa Calm     86% 0 mm meteobridge W/m2
10:45 24.2 °C 20.7 °C 1019.9 hPa Calm     81% 0 mm meteobridge W/m2
10:50 24.4 °C 21.3 °C 1020.2 hPa Calm     83% 0 mm meteobridge W/m2
10:55 24.6 °C 20.9 °C 1020.2 hPa Calm     80% 0 mm meteobridge W/m2
11:00 24.8 °C 20.5 °C 1020.2 hPa Calm   1.6 km/h 77% 0 mm meteobridge W/m2
11:05 25.1 °C 20.8 °C 1020.5 hPa Calm     77% 0 mm meteobridge W/m2
11:10 25.3 °C 20.8 °C 1020.5 hPa Calm     76% 0 mm meteobridge W/m2
11:15 25.6 °C 20.8 °C 1020.5 hPa Calm   4.8 km/h 75% 0 mm meteobridge W/m2
11:20 26 °C 20.8 °C 1020.5 hPa NE 3.2 km/h 4.8 km/h 73% 0 mm meteobridge W/m2
11:25 26.5 °C 21 °C 1020.5 hPa Calm   1.6 km/h 72% 0 mm meteobridge W/m2
11:30 26.9 °C 20.7 °C 1020.5 hPa Calm     69% 0 mm meteobridge W/m2
11:35 27.3 °C 20.6 °C 1020.5 hPa Calm   1.6 km/h 67% 0 mm meteobridge W/m2
11:40 27.8 °C 20.9 °C 1020.5 hPa Calm   4.8 km/h 66% 0 mm meteobridge W/m2
11:45 28.1 °C 22.1 °C 1020.9 hPa Calm   1.6 km/h 70% 0 mm meteobridge W/m2
11:50 28.3 °C 21.6 °C 1020.9 hPa Calm   4.8 km/h 67% 0 mm meteobridge W/m2
11:55 28.4 °C 21.4 °C 1020.9 hPa Calm   4.8 km/h 66% 0 mm meteobridge W/m2
12:00 28.4 °C 20.9 °C 1020.9 hPa Calm   1.6 km/h 64% 0 mm meteobridge W/m2
12:05 28.5 °C 21 °C 1020.9 hPa North 1.4 km/h 6.4 km/h 64% 0 mm meteobridge W/m2
12:10 28.5 °C 20.5 °C 1020.9 hPa NNW 1.4 km/h 3.2 km/h 62% 0 mm meteobridge W/m2
12:15 28.6 °C 21.6 °C 1020.9 hPa Calm     66% 0 mm meteobridge W/m2
12:20 28.6 °C 21.6 °C 1020.9 hPa Calm     66% 0 mm meteobridge W/m2
12:25 28.5 °C 21 °C 1020.9 hPa NW 1.4 km/h 1.6 km/h 64% 0 mm meteobridge W/m2
12:30 28.7 °C 21 °C 1020.5 hPa North 1.4 km/h 1.6 km/h 63% 0 mm meteobridge W/m2
12:35 28.8 °C 21.3 °C 1020.5 hPa Calm     64% 0 mm meteobridge W/m2
12:40 29 °C 21.2 °C 1020.5 hPa Calm   1.6 km/h 63% 0 mm meteobridge W/m2
12:45 29.1 °C 21.3 °C 1020.5 hPa Calm     63% 0 mm meteobridge W/m2
12:50 29.2 °C 20.9 °C 1020.2 hPa Calm     61% 0 mm meteobridge W/m2
12:55 29.3 °C 20.7 °C 1020.2 hPa NW 1.4 km/h 1.6 km/h 60% 0 mm meteobridge W/m2
13:00 29.4 °C 20.5 °C 1020.2 hPa Calm     59% 0 mm meteobridge W/m2
13:05 29.6 °C 21.3 °C 1020.2 hPa Calm     61% 0 mm meteobridge W/m2
13:10 29.8 °C 21.2 °C 1019.9 hPa Calm     60% 0 mm meteobridge W/m2
13:15 29.9 °C 21.3 °C 1019.9 hPa Calm   1.6 km/h 60% 0 mm meteobridge W/m2
13:20 30.1 °C 21.2 °C 1019.9 hPa Calm   6.4 km/h 59% 0 mm meteobridge W/m2
13:25 30.3 °C 21.4 °C 1020.2 hPa NW 1.4 km/h 4.8 km/h 59% 0 mm meteobridge W/m2
13:30 30.4 °C 21.5 °C 1019.9 hPa NNW 1.4 km/h 9.7 km/h 59% 0 mm meteobridge W/m2
13:35 30.7 °C 21.2 °C 1019.9 hPa Calm   1.6 km/h 57% 0 mm meteobridge W/m2
13:40 30.7 °C 21.2 °C 1019.9 hPa Calm   1.6 km/h 57% 0 mm meteobridge W/m2
13:45 30.7 °C 21.2 °C 1019.9 hPa Calm     57% 0 mm meteobridge W/m2
13:50 30.7 °C 21.5 °C 1019.5 hPa Calm   3.2 km/h 58% 0 mm meteobridge W/m2
13:55 30.6 °C 20.8 °C 1019.5 hPa Calm     56% 0 mm meteobridge W/m2
14:00 30.6 °C 21.1 °C 1019.5 hPa Calm   1.6 km/h 57% 0 mm meteobridge W/m2
14:05 30.6 °C 21.1 °C 1019.5 hPa Calm   3.2 km/h 57% 0 mm meteobridge W/m2
14:10 30.6 °C 22.2 °C 1019.5 hPa Calm     61% 0 mm meteobridge W/m2
14:15 30.5 °C 21 °C 1019.2 hPa Calm   1.6 km/h 57% 0 mm meteobridge W/m2
14:20 30.4 °C 21.2 °C 1019.2 hPa Calm     58% 0 mm meteobridge W/m2
14:25 30.6 °C 21.4 °C 1019.2 hPa Calm   4.8 km/h 58% 0 mm meteobridge W/m2
14:30 30.7 °C 21.2 °C 1018.8 hPa Calm   4.8 km/h 57% 0 mm meteobridge W/m2
14:35 30.9 °C 21.7 °C 1018.8 hPa NNW 1.4 km/h 1.6 km/h 58% 0 mm meteobridge W/m2
14:40 30.9 °C 21.7 °C 1018.8 hPa WNW 6.4 km/h 9.7 km/h 58% 0 mm meteobridge W/m2
14:45 30.8 °C 21 °C 1018.8 hPa NW 1.4 km/h 1.6 km/h 56% 0 mm meteobridge W/m2
14:50 30.7 °C 21.8 °C 1018.8 hPa Calm     59% 0 mm meteobridge W/m2
14:55 30.2 °C 22.1 °C 1018.5 hPa Calm     62% 0 mm meteobridge W/m2
15:00 29.8 °C 22 °C 1018.5 hPa Calm     63% 0 mm meteobridge W/m2
15:05 29.6 °C 21.3 °C 1018.5 hPa Calm     61% 0 mm meteobridge W/m2
15:10 29.6 °C 20.7 °C 1018.5 hPa Calm     59% 0 mm meteobridge W/m2
15:15 29.8 °C 21.2 °C 1018.5 hPa Calm     60% 0 mm meteobridge W/m2
15:20 29.9 °C 21.6 °C 1018.2 hPa Calm     61% 0 mm meteobridge W/m2
15:25 29.6 °C 23.1 °C 1018.2 hPa Calm     68% 0 mm meteobridge W/m2
15:30 29.2 °C 22.9 °C 1018.2 hPa Calm     69% 0 mm meteobridge W/m2
15:35 28.9 °C 22.4 °C 1018.2 hPa Calm     68% 0 mm meteobridge W/m2
15:40 28.9 °C 21.1 °C 1017.8 hPa Calm     63% 0 mm meteobridge W/m2
15:45 29.1 °C 21.1 °C 1017.8 hPa Calm     62% 0 mm meteobridge W/m2
15:50 29.4 °C 21.1 °C 1017.8 hPa Calm     61% 0 mm meteobridge W/m2
15:55 29.8 °C 20.9 °C 1017.8 hPa Calm     59% 0 mm meteobridge W/m2
16:00 30.1 °C 21.5 °C 1017.8 hPa Calm     60% 0 mm meteobridge W/m2
16:05 30 °C 23.7 °C 1017.8 hPa Calm     69% 0 mm meteobridge W/m2
16:10 29.6 °C 23.3 °C 1017.5 hPa Calm     69% 0 mm meteobridge W/m2
16:15 29.1 °C 22.8 °C 1017.5 hPa Calm     69% 0 mm meteobridge W/m2
16:20 28.8 °C 22.3 °C 1017.5 hPa Calm     68% 0 mm meteobridge W/m2
16:25 28.7 °C 22.4 °C 1017.5 hPa Calm     69% 0 mm meteobridge W/m2
16:30 28.7 °C 22.7 °C 1017.5 hPa Calm     70% 0 mm meteobridge W/m2
16:35 28.7 °C 22.7 °C 1017.5 hPa Calm     70% 0 mm meteobridge W/m2
16:40 28.7 °C 22.7 °C 1017.5 hPa Calm     70% 0 mm meteobridge W/m2
16:45 28.7 °C 22.9 °C 1017.2 hPa Calm     71% 0 mm meteobridge W/m2
16:50 28.8 °C 22.1 °C 1017.2 hPa Calm     67% 0 mm meteobridge W/m2
16:55 29.2 °C 21.2 °C 1017.2 hPa Calm   1.6 km/h 62% 0 mm meteobridge W/m2
17:00 29.7 °C 20.8 °C 1017.2 hPa Calm     59% 0 mm meteobridge W/m2
17:05 30 °C 21.7 °C 1017.2 hPa Calm     61% 0 mm meteobridge W/m2
17:10 30.2 °C 21.6 °C 1017.2 hPa Calm   1.6 km/h 60% 0 mm meteobridge W/m2
17:15 30.3 °C 21.4 °C 1017.2 hPa Calm     59% 0 mm meteobridge W/m2
17:20 30.6 °C 22.2 °C 1017.2 hPa Calm     61% 0 mm meteobridge W/m2
17:25 30.6 °C 21.4 °C 1016.8 hPa Calm   1.6 km/h 58% 0 mm meteobridge W/m2
17:30 30.7 °C 23.4 °C 1016.8 hPa Calm   1.6 km/h 65% 0 mm meteobridge W/m2
17:35 30.4 °C 22.6 °C 1016.8 hPa Calm     63% 0 mm meteobridge W/m2
17:40 30.3 °C 21.7 °C 1016.8 hPa Calm     60% 0 mm meteobridge W/m2
17:45 30.3 °C 21.9 °C 1016.8 hPa Calm     61% 0 mm meteobridge W/m2
17:50 30.2 °C 23.1 °C 1017.2 hPa Calm     66% 0 mm meteobridge W/m2
17:55 29.9 °C 23.1 °C 1017.2 hPa Calm     67% 0 mm meteobridge W/m2
18:00 29.7 °C 22.2 °C 1017.2 hPa Calm     64% 0 mm meteobridge W/m2
18:05 29.6 °C 22.3 °C 1017.2 hPa Calm     65% 0 mm meteobridge W/m2
18:10 29.4 °C 22.1 °C 1017.2 hPa Calm     65% 0 mm meteobridge W/m2
18:15 29.4 °C 22.9 °C 1017.2 hPa Calm     68% 0 mm meteobridge W/m2
18:20 29.2 °C 22.4 °C 1016.8 hPa Calm     67% 0 mm meteobridge W/m2
18:25 29.3 °C 22.3 °C 1017.2 hPa Calm   1.6 km/h 66% 0 mm meteobridge W/m2
18:30 29.4 °C 22.4 °C 1017.2 hPa Calm     66% 0 mm meteobridge W/m2
18:35 29.5 °C 22.5 °C 1017.2 hPa Calm     66% 0 mm meteobridge W/m2
18:40 29.6 °C 22.8 °C 1017.2 hPa Calm     67% 0 mm meteobridge W/m2
18:45 29.5 °C 22.2 °C 1017.2 hPa Calm     65% 0 mm meteobridge W/m2
18:50 29.4 °C 22.1 °C 1017.2 hPa Calm     65% 0 mm meteobridge W/m2
18:55 29.4 °C 22.1 °C 1017.2 hPa Calm     65% 0 mm meteobridge W/m2
19:00 29.6 °C 22.1 °C 1017.2 hPa Calm   1.6 km/h 64% 0 mm meteobridge W/m2
19:05 29.6 °C 22.1 °C 1017.5 hPa Calm     64% 0 mm meteobridge W/m2
19:10 29.6 °C 22.3 °C 1017.5 hPa Calm   1.6 km/h 65% 0 mm meteobridge W/m2
19:15 29.6 °C 22.3 °C 1017.5 hPa Calm     65% 0 mm meteobridge W/m2
19:20 29.4 °C 22.1 °C 1017.5 hPa Calm     65% 0 mm meteobridge W/m2
19:25 29.3 °C 22.3 °C 1017.5 hPa Calm     66% 0 mm meteobridge W/m2
19:30 29.3 °C 22.3 °C 1017.5 hPa Calm     66% 0 mm meteobridge W/m2
19:35 29.1 °C 22.1 °C 1017.5 hPa Calm     66% 0 mm meteobridge W/m2
19:40 29 °C 22 °C 1017.5 hPa Calm     66% 0 mm meteobridge W/m2
19:45 28.9 °C 21.9 °C 1017.8 hPa Calm     66% 0 mm meteobridge W/m2
19:50 28.8 °C 22.3 °C 1017.8 hPa Calm     68% 0 mm meteobridge W/m2
19:55 28.6 °C 21.9 °C 1017.8 hPa Calm     67% 0 mm meteobridge W/m2
20:00 28.5 °C 22.3 °C 1017.8 hPa Calm     69% 0 mm meteobridge W/m2
20:05 28.3 °C 22.8 °C 1018.2 hPa Calm     72% 0 mm meteobridge W/m2
20:10 28.1 °C 22.6 °C 1018.2 hPa Calm     72% 0 mm meteobridge W/m2
20:15 27.7 °C 22.4 °C 1018.2 hPa Calm     73% 0 mm meteobridge W/m2
20:20 27.4 °C 22.6 °C 1018.2 hPa Calm     75% 0 mm meteobridge W/m2
20:25 27.2 °C 22.2 °C 1018.5 hPa Calm     74% 0 mm meteobridge W/m2
20:30 26.9 °C 22.3 °C 1018.5 hPa Calm     76% 0 mm meteobridge W/m2
20:35 26.7 °C 22.3 °C 1018.5 hPa Calm     77% 0 mm meteobridge W/m2
20:40 26.4 °C 22.3 °C 1018.5 hPa Calm     78% 0 mm meteobridge W/m2
20:45 26.3 °C 22.4 °C 1018.5 hPa Calm     79% 0 mm meteobridge W/m2
20:50 26.1 °C 22.2 °C 1018.5 hPa Calm     79% 0 mm meteobridge W/m2
20:55 25.8 °C 22.1 °C 1018.5 hPa Calm     80% 0 mm meteobridge W/m2
21:00 25.7 °C 22 °C 1018.5 hPa Calm     80% 0 mm meteobridge W/m2
21:05 25.6 °C 22.1 °C 1018.5 hPa Calm     81% 0 mm meteobridge W/m2
21:10 25.4 °C 21.9 °C 1018.5 hPa Calm     81% 0 mm meteobridge W/m2
21:15 25.4 °C 21.7 °C 1018.5 hPa Calm     80% 0 mm meteobridge W/m2
21:20 25.3 °C 21.8 °C 1018.5 hPa Calm     81% 0 mm meteobridge W/m2
21:25 25.3 °C 21.6 °C 1018.5 hPa Calm     80% 0 mm meteobridge W/m2
21:30 25.2 °C 21.7 °C 1018.5 hPa Calm     81% 0 mm meteobridge W/m2
21:35 25.2 °C 21.9 °C 1018.5 hPa Calm     82% 0 mm meteobridge W/m2
21:40 25 °C 21.7 °C 1018.5 hPa Calm     82% 0 mm meteobridge W/m2
21:45 24.8 °C 21.7 °C 1018.5 hPa Calm     83% 0 mm meteobridge W/m2
21:50 24.7 °C 21.6 °C 1018.2 hPa Calm     83% 0 mm meteobridge W/m2
21:55 24.5 °C 21.4 °C 1018.2 hPa Calm     83% 0 mm meteobridge W/m2
22:00 24.4 °C 21.5 °C 1018.5 hPa Calm     84% 0 mm meteobridge W/m2
22:05 24.3 °C 21.4 °C 1018.5 hPa Calm     84% 0 mm meteobridge W/m2
22:10 24.2 °C 21.5 °C 1018.5 hPa Calm     85% 0 mm meteobridge W/m2
22:15 24.1 °C 21.4 °C 1018.5 hPa Calm     85% 0 mm meteobridge W/m2
22:20 23.9 °C 21.4 °C 1018.8 hPa Calm     86% 0 mm meteobridge W/m2
22:25 23.8 °C 21.3 °C 1018.8 hPa Calm     86% 0 mm meteobridge W/m2
22:30 23.7 °C 21.2 °C 1018.8 hPa Calm     86% 0 mm meteobridge W/m2
22:35 23.6 °C 21.3 °C 1018.8 hPa Calm     87% 0 mm meteobridge W/m2
22:40 23.5 °C 21.2 °C 1018.8 hPa Calm     87% 0 mm meteobridge W/m2
22:45 23.4 °C 21.1 °C 1018.8 hPa Calm     87% 0 mm meteobridge W/m2
22:50 23.4 °C 21.3 °C 1018.8 hPa Calm     88% 0 mm meteobridge W/m2
22:55 23.3 °C 21.2 °C 1018.8 hPa Calm     88% 0 mm meteobridge W/m2
23:00 23.2 °C 21.1 °C 1018.8 hPa Calm     88% 0 mm meteobridge W/m2
23:05 23.2 °C 21.1 °C 1019.2 hPa Calm     88% 0 mm meteobridge W/m2
23:10 23.2 °C 21.3 °C 1019.5 hPa Calm     89% 0 mm meteobridge W/m2
23:15 23.2 °C 21.3 °C 1019.5 hPa Calm     89% 0 mm meteobridge W/m2
23:20 23.2 °C 21.3 °C 1019.5 hPa Calm     89% 0 mm meteobridge W/m2
23:25 23.2 °C 21.3 °C 1019.5 hPa Calm     89% 0 mm meteobridge W/m2
23:30 23.2 °C 21.3 °C 1019.5 hPa Calm     89% 0 mm meteobridge W/m2
23:35 23.3 °C 21.4 °C 1019.9 hPa Calm     89% 0 mm meteobridge W/m2
23:40 23.3 °C 21.2 °C 1019.9 hPa Calm     88% 0 mm meteobridge W/m2
23:45 23.4 °C 21.5 °C 1019.9 hPa Calm     89% 0 mm meteobridge W/m2
23:50 23.5 °C 21.4 °C 1019.5 hPa Calm     88% 0 mm meteobridge W/m2
23:55 23.5 °C 21.4 °C 1019.5 hPa Calm     88% 0 mm meteobridge W/m2
EllijayWeather
Compliments of Weather Underground - 2.5 mb